createdAt,value
2023-03-03T00:00:21.427Z,100.00
2023-03-03T00:02:51.335Z,100.00
2023-03-03T00:05:21.327Z,100.00
2023-03-03T00:07:51.164Z,100.00
2023-03-03T00:10:23.594Z,100.00
2023-03-03T00:12:55.303Z,100.00
2023-03-03T00:15:27.456Z,100.00
2023-03-03T00:17:58.085Z,100.00
2023-03-03T00:20:36.584Z,100.00
2023-03-03T00:23:23.910Z,100.00
2023-03-03T00:25:57.378Z,100.00
2023-03-03T00:28:30.394Z,100.00
2023-03-03T00:31:02.260Z,100.00
2023-03-03T00:33:35.577Z,100.00
2023-03-03T00:36:35.110Z,100.00
2023-03-03T00:39:28.250Z,100.00
2023-03-03T00:42:05.009Z,100.00
2023-03-03T00:44:43.191Z,100.00
2023-03-03T00:50:32.183Z,100.00
2023-03-03T00:53:08.615Z,100.00
2023-03-03T00:55:39.074Z,100.00
2023-03-03T00:58:11.991Z,100.00
2023-03-03T01:00:44.113Z,100.00
2023-03-03T01:03:18.199Z,100.00
2023-03-03T01:05:53.528Z,100.00
2023-03-03T01:08:25.138Z,100.00
2023-03-03T01:10:57.195Z,100.00
2023-03-03T01:13:33.298Z,100.00
2023-03-03T01:16:04.907Z,99.90
2023-03-03T01:18:37.844Z,99.80
2023-03-03T01:21:08.042Z,99.77
2023-03-03T01:23:38.219Z,99.69
2023-03-03T01:26:08.648Z,99.50
2023-03-03T01:28:41.196Z,99.53
2023-03-03T01:31:11.758Z,99.48
2023-03-03T01:33:41.745Z,99.27
2023-03-03T01:36:11.819Z,99.26
2023-03-03T01:38:45.000Z,99.09
2023-03-03T01:41:15.034Z,99.19
2023-03-03T01:43:52.903Z,99.01
2023-03-03T01:46:47.774Z,99.00
2023-03-03T01:49:22.260Z,98.99
2023-03-03T01:51:58.397Z,98.83
2023-03-03T01:54:32.769Z,98.67
2023-03-03T01:57:05.938Z,98.75
2023-03-03T01:59:44.005Z,98.79
2023-03-03T02:02:14.024Z,98.55
2023-03-03T02:04:44.102Z,98.51
2023-03-03T02:07:15.254Z,98.48
2023-03-03T02:09:53.774Z,98.44
2023-03-03T02:12:29.468Z,98.22
2023-03-03T02:15:02.216Z,98.28
2023-03-03T02:17:33.788Z,98.31
2023-03-03T02:20:08.903Z,98.21
2023-03-03T02:22:47.211Z,98.26
2023-03-03T02:25:24.530Z,98.12
2023-03-03T02:27:57.770Z,98.26
2023-03-03T02:30:28.188Z,98.07
2023-03-03T02:32:58.032Z,98.22
2023-03-03T02:35:36.481Z,98.28
2023-03-03T02:38:17.524Z,98.24
2023-03-03T02:40:55.061Z,98.31
2023-03-03T02:43:29.815Z,98.32
2023-03-03T02:45:59.892Z,98.36
2023-03-03T02:48:29.823Z,98.32
2023-03-03T02:50:59.684Z,98.31
2023-03-03T02:53:29.550Z,98.38
2023-03-03T02:55:59.456Z,98.24
2023-03-03T02:58:31.865Z,98.29
2023-03-03T03:01:01.697Z,98.30
2023-03-03T03:03:31.767Z,98.48
2023-03-03T03:06:01.862Z,98.31
2023-03-03T03:08:31.857Z,98.36
2023-03-03T03:11:01.743Z,98.41
2023-03-03T03:13:35.976Z,98.41
2023-03-03T03:16:05.972Z,98.26
2023-03-03T03:18:37.318Z,98.33
2023-03-03T03:21:11.526Z,98.33
2023-03-03T03:23:42.605Z,98.36
2023-03-03T03:26:13.863Z,98.39
2023-03-03T03:28:46.406Z,98.28
2023-03-03T03:31:16.377Z,98.42
2023-03-03T03:33:46.526Z,98.44
2023-03-03T03:36:16.466Z,98.35
2023-03-03T03:38:46.318Z,98.35
2023-03-03T03:41:16.362Z,98.37
2023-03-03T03:43:48.789Z,98.44
2023-03-03T03:46:18.929Z,98.44
2023-03-03T03:48:49.682Z,98.51
2023-03-03T03:51:20.367Z,98.42
2023-03-03T03:53:50.116Z,98.42
2023-03-03T03:56:20.426Z,98.45
2023-03-03T03:58:53.316Z,98.57
2023-03-03T04:01:24.628Z,98.48
2023-03-03T04:03:54.398Z,98.39
2023-03-03T04:06:24.207Z,98.64
2023-03-03T04:08:54.007Z,98.49
2023-03-03T04:11:23.762Z,98.58
2023-03-03T04:13:57.053Z,98.57
2023-03-03T04:16:26.849Z,98.65
2023-03-03T04:18:59.924Z,98.63
2023-03-03T04:21:30.501Z,98.50
2023-03-03T04:24:01.717Z,98.54
2023-03-03T04:26:31.754Z,98.51
2023-03-03T04:29:04.561Z,98.58
2023-03-03T04:31:34.694Z,98.63
2023-03-03T04:34:04.615Z,98.64
2023-03-03T04:36:34.460Z,98.63
2023-03-03T04:39:05.659Z,98.68
2023-03-03T04:41:35.596Z,98.71
2023-03-03T04:44:08.209Z,98.62
2023-03-03T04:46:38.285Z,98.62
2023-03-03T04:49:10.752Z,98.69
2023-03-03T04:51:42.036Z,98.56
2023-03-03T04:54:11.894Z,98.58
2023-03-03T04:56:42.451Z,98.50
2023-03-03T04:59:15.518Z,98.43
2023-03-03T05:01:46.625Z,98.50
2023-03-03T05:04:16.510Z,98.65
2023-03-03T05:06:46.367Z,98.55
2023-03-03T05:09:16.143Z,98.57
2023-03-03T05:11:46.009Z,98.43
2023-03-03T05:14:18.433Z,98.43
2023-03-03T05:16:49.150Z,98.66
2023-03-03T05:19:22.937Z,98.58
2023-03-03T05:21:52.835Z,98.54
2023-03-03T05:24:22.630Z,98.60
2023-03-03T05:26:52.546Z,98.72
2023-03-03T05:29:26.510Z,98.68
2023-03-03T05:31:56.343Z,98.84
2023-03-03T05:34:26.151Z,98.82
2023-03-03T05:36:55.946Z,98.94
2023-03-03T05:39:26.153Z,99.15
2023-03-03T05:41:57.839Z,99.10
2023-03-03T05:44:30.573Z,99.11
2023-03-03T05:47:00.454Z,99.15
2023-03-03T05:49:30.363Z,99.27
2023-03-03T05:52:00.375Z,99.18
2023-03-03T05:54:30.622Z,99.50
2023-03-03T05:57:00.529Z,99.37
2023-03-03T05:59:33.309Z,99.48
2023-03-03T06:02:03.395Z,99.59
2023-03-03T06:04:33.378Z,99.62
2023-03-03T06:07:06.372Z,99.79
2023-03-03T06:09:37.109Z,99.90
2023-03-03T06:12:08.882Z,99.86
2023-03-03T06:14:41.641Z,99.97
2023-03-03T06:17:11.665Z,100.00
2023-03-03T06:19:42.380Z,100.00
2023-03-03T06:22:12.657Z,100.00
2023-03-03T06:24:42.550Z,100.00
2023-03-03T06:27:12.974Z,100.00
2023-03-03T06:29:45.382Z,100.00
2023-03-03T06:32:16.367Z,100.00
2023-03-03T06:34:46.538Z,100.00
2023-03-03T06:37:16.394Z,100.00
2023-03-03T06:39:46.250Z,100.00
2023-03-03T06:42:16.075Z,100.00
2023-03-03T06:44:52.255Z,100.00
2023-03-03T06:47:22.101Z,100.00
2023-03-03T06:49:52.007Z,100.00
2023-03-03T06:52:25.627Z,100.00
2023-03-03T06:54:58.317Z,100.00
2023-03-03T06:57:30.581Z,100.00
2023-03-03T07:00:15.686Z,100.00
2023-03-03T07:02:45.535Z,100.00
2023-03-03T07:05:18.866Z,100.00
2023-03-03T07:07:58.435Z,100.00
2023-03-03T07:10:31.154Z,100.00
2023-03-03T07:13:19.177Z,100.00
2023-03-03T07:15:52.989Z,100.00
2023-03-03T07:18:40.481Z,100.00
2023-03-03T07:21:19.327Z,100.00
2023-03-03T07:23:51.073Z,100.00
2023-03-03T07:26:25.059Z,100.00
2023-03-03T07:28:58.026Z,100.00
2023-03-03T07:31:36.961Z,100.00
2023-03-03T07:34:21.660Z,100.00
2023-03-03T07:36:53.038Z,100.00
2023-03-03T07:39:40.357Z,100.00
2023-03-03T07:42:20.791Z,100.00
2023-03-03T07:44:51.514Z,100.00
2023-03-03T07:47:27.965Z,100.00
2023-03-03T07:49:59.702Z,100.00
2023-03-03T07:52:32.740Z,100.00
2023-03-03T07:55:04.920Z,100.00
2023-03-03T07:57:40.742Z,100.00
2023-03-03T08:00:58.501Z,100.00
2023-03-03T08:03:30.939Z,100.00
2023-03-03T08:06:01.823Z,100.00
2023-03-03T08:08:37.778Z,100.00
2023-03-03T08:11:12.667Z,100.00
2023-03-03T08:13:48.472Z,100.00
2023-03-03T08:16:40.519Z,100.00
2023-03-03T08:19:18.572Z,100.00
2023-03-03T08:21:48.495Z,100.00
2023-03-03T08:24:19.027Z,100.00
2023-03-03T08:26:48.808Z,100.00
2023-03-03T08:29:18.582Z,100.00
2023-03-03T08:31:48.433Z,100.00
2023-03-03T08:34:20.975Z,100.00
2023-03-03T08:36:51.030Z,100.00
2023-03-03T08:39:20.819Z,100.00
2023-03-03T08:41:50.600Z,100.00
2023-03-03T08:44:20.748Z,100.00
2023-03-03T08:46:50.722Z,100.00
2023-03-03T08:49:24.194Z,100.00
2023-03-03T08:51:54.785Z,100.00
2023-03-03T08:54:24.522Z,100.00
2023-03-03T08:56:55.611Z,100.00
2023-03-03T08:59:25.517Z,100.00
2023-03-03T09:01:55.612Z,100.00
2023-03-03T09:04:28.053Z,100.00
2023-03-03T09:06:57.899Z,100.00
2023-03-03T09:09:28.936Z,100.00
2023-03-03T09:12:02.912Z,100.00
2023-03-03T09:14:32.804Z,100.00
2023-03-03T09:17:03.717Z,100.00
2023-03-03T09:19:40.332Z,100.00
2023-03-03T09:22:22.710Z,100.00
2023-03-03T09:24:56.032Z,100.00
2023-03-03T09:27:31.512Z,100.00
2023-03-03T09:30:05.122Z,100.00
2023-03-03T09:32:39.356Z,100.00
2023-03-03T09:35:38.950Z,100.00
2023-03-03T09:38:30.414Z,100.00
2023-03-03T09:41:29.239Z,100.00
2023-03-03T09:44:17.427Z,100.00
2023-03-03T09:47:01.190Z,100.00
2023-03-03T09:49:36.073Z,100.00
2023-03-03T09:52:30.348Z,100.00
2023-03-03T09:55:10.702Z,100.00
2023-03-03T09:58:10.841Z,100.00
2023-03-03T10:00:53.124Z,100.00
2023-03-03T10:03:42.858Z,100.00
2023-03-03T10:06:23.154Z,100.00
2023-03-03T10:09:08.002Z,100.00
2023-03-03T10:11:44.608Z,100.00
2023-03-03T10:14:29.905Z,100.00
2023-03-03T10:17:23.219Z,100.00
2023-03-03T10:20:09.276Z,100.00
2023-03-03T10:22:50.031Z,100.00
2023-03-03T10:25:31.634Z,100.00
2023-03-03T10:28:30.432Z,100.00
2023-03-03T10:31:17.375Z,100.00
2023-03-03T10:33:57.971Z,100.00
2023-03-03T10:36:38.026Z,100.00
2023-03-03T10:39:23.032Z,100.00
2023-03-03T10:42:13.546Z,100.00
2023-03-03T10:45:00.711Z,100.00
2023-03-03T10:47:45.140Z,100.00
2023-03-03T10:50:24.053Z,100.00
2023-03-03T10:53:04.258Z,100.00
2023-03-03T10:55:52.569Z,99.77
2023-03-03T10:58:56.783Z,99.36
2023-03-03T11:01:33.258Z,98.99
2023-03-03T11:04:41.700Z,98.57
2023-03-03T11:07:21.521Z,98.29
2023-03-03T11:10:05.986Z,97.81
2023-03-03T11:12:48.226Z,97.52
2023-03-03T11:15:43.962Z,97.01
2023-03-03T11:18:25.797Z,96.65
2023-03-03T11:21:05.765Z,96.44
2023-03-03T11:24:02.270Z,96.06
2023-03-03T11:26:49.546Z,95.66
2023-03-03T11:29:38.645Z,95.29
2023-03-03T11:32:29.883Z,95.03
2023-03-03T11:35:19.754Z,94.55
2023-03-03T11:38:09.880Z,94.28
2023-03-03T11:40:48.131Z,93.88
2023-03-03T11:43:36.119Z,93.72
2023-03-03T11:46:11.509Z,93.41
2023-03-03T11:48:55.675Z,93.17
2023-03-03T11:51:35.290Z,92.86
2023-03-03T11:54:11.878Z,92.55
2023-03-03T11:56:44.804Z,92.42
2023-03-03T11:59:32.803Z,92.13
2023-03-03T12:02:14.660Z,91.88
2023-03-03T12:04:53.073Z,91.64
2023-03-03T12:07:36.584Z,91.46
2023-03-03T12:10:18.029Z,91.31
2023-03-03T12:12:53.999Z,91.15
2023-03-03T12:15:33.715Z,90.97
2023-03-03T12:18:38.394Z,90.70
2023-03-03T12:21:29.925Z,90.41
2023-03-03T12:24:26.419Z,90.27
2023-03-03T12:27:10.044Z,89.98
2023-03-03T12:29:47.002Z,89.78
2023-03-03T12:32:38.406Z,89.81
2023-03-03T12:35:22.477Z,89.61
2023-03-03T12:38:03.337Z,89.50
2023-03-03T12:40:36.585Z,89.37
2023-03-03T12:43:27.597Z,89.27
2023-03-03T12:46:05.470Z,89.12
2023-03-03T12:48:43.474Z,88.97
2023-03-03T12:51:22.815Z,88.86
2023-03-03T12:54:14.137Z,88.62
2023-03-03T12:56:48.884Z,88.66
2023-03-03T12:59:28.302Z,88.58
2023-03-03T13:02:31.642Z,88.53
2023-03-03T13:05:10.510Z,88.54
2023-03-03T13:07:46.865Z,88.52
2023-03-03T13:10:27.739Z,88.55
2023-03-03T13:13:01.619Z,88.53
2023-03-03T13:15:37.599Z,88.44
2023-03-03T13:18:28.430Z,88.45
2023-03-03T13:21:06.040Z,88.38
2023-03-03T13:23:46.405Z,88.29
2023-03-03T13:26:24.728Z,88.32
2023-03-03T13:29:05.425Z,88.29
2023-03-03T13:31:38.044Z,88.36
2023-03-03T13:34:15.341Z,88.36
2023-03-03T13:36:52.622Z,88.26
2023-03-03T13:39:27.247Z,88.31
2023-03-03T13:42:04.884Z,88.33
2023-03-03T13:44:42.410Z,88.30
2023-03-03T13:47:19.465Z,88.20
2023-03-03T13:50:16.071Z,88.27
2023-03-03T13:52:53.306Z,88.21
2023-03-03T13:55:32.671Z,88.22
2023-03-03T13:58:15.348Z,88.24
2023-03-03T14:00:59.349Z,88.22
2023-03-03T14:03:51.332Z,88.18
2023-03-03T14:06:23.009Z,88.17
2023-03-03T14:09:08.884Z,88.28
2023-03-03T14:11:45.945Z,88.27
2023-03-03T14:14:31.265Z,88.36
2023-03-03T14:17:06.699Z,88.39
2023-03-03T14:19:39.789Z,88.41
2023-03-03T14:22:26.819Z,88.49
2023-03-03T14:25:05.529Z,88.43
2023-03-03T14:27:40.816Z,88.46
2023-03-03T14:30:33.036Z,88.45
2023-03-03T14:33:07.491Z,88.27
2023-03-03T14:35:40.402Z,88.30
2023-03-03T14:38:16.142Z,88.28
2023-03-03T14:40:48.205Z,88.26
2023-03-03T14:43:28.122Z,88.27
2023-03-03T14:46:25.499Z,88.27
2023-03-03T14:48:57.293Z,88.32
2023-03-03T14:51:29.304Z,88.28
2023-03-03T14:54:00.477Z,88.35
2023-03-03T14:56:33.278Z,88.28
2023-03-03T14:59:21.114Z,88.29
2023-03-03T15:02:01.064Z,88.33
2023-03-03T15:04:34.217Z,88.42
2023-03-03T15:07:30.833Z,88.43
2023-03-03T15:10:00.680Z,88.41
2023-03-03T15:12:40.797Z,88.52
2023-03-03T15:15:44.814Z,88.47
2023-03-03T15:18:17.663Z,88.52
2023-03-03T15:20:51.140Z,88.55
2023-03-03T15:23:53.711Z,88.66
2023-03-03T15:26:30.933Z,88.60
2023-03-03T15:29:09.293Z,88.75
2023-03-03T15:31:51.473Z,88.79
2023-03-03T15:34:34.572Z,88.86
2023-03-03T15:37:41.766Z,88.89
2023-03-03T15:40:20.730Z,88.96
2023-03-03T15:42:52.568Z,88.84
2023-03-03T15:45:29.336Z,88.97
2023-03-03T15:48:11.381Z,89.06
2023-03-03T15:50:58.700Z,88.97
2023-03-03T15:54:00.960Z,89.05
2023-03-03T15:56:38.729Z,89.20
2023-03-03T15:59:39.787Z,89.21
2023-03-03T16:02:18.972Z,89.20
2023-03-03T16:04:58.267Z,89.33
2023-03-03T16:07:43.758Z,89.18
2023-03-03T16:10:24.377Z,89.22
2023-03-03T16:13:04.622Z,89.34
2023-03-03T16:15:47.341Z,89.34
2023-03-03T16:18:27.582Z,89.55
2023-03-03T16:21:09.863Z,89.48
2023-03-03T16:23:50.052Z,89.53
2023-03-03T16:26:33.941Z,89.56
2023-03-03T16:29:28.268Z,89.51
2023-03-03T16:32:04.048Z,89.59
2023-03-03T16:34:39.612Z,89.53
2023-03-03T16:37:19.073Z,89.61
2023-03-03T16:39:59.075Z,89.61
2023-03-03T16:42:35.158Z,89.67
2023-03-03T16:45:25.214Z,89.73
2023-03-03T16:48:08.530Z,89.75
2023-03-03T16:50:47.422Z,90.05
2023-03-03T16:53:29.503Z,89.94
2023-03-03T16:56:09.834Z,90.12
2023-03-03T16:58:50.823Z,90.25
2023-03-03T17:01:28.376Z,90.19
2023-03-03T17:04:03.544Z,90.31
2023-03-03T17:06:45.227Z,90.33
2023-03-03T17:09:33.239Z,90.63
2023-03-03T17:12:22.049Z,90.65
2023-03-03T17:15:06.696Z,90.75
2023-03-03T17:17:47.165Z,90.85
2023-03-03T17:20:31.190Z,90.90
2023-03-03T17:23:22.465Z,90.95
2023-03-03T17:26:01.026Z,90.88
2023-03-03T17:28:44.518Z,91.00
2023-03-03T17:31:24.435Z,91.00
2023-03-03T17:34:06.626Z,91.13
2023-03-03T17:36:49.913Z,91.13
2023-03-03T17:39:53.520Z,91.26
2023-03-03T17:42:35.738Z,91.26
2023-03-03T17:45:13.013Z,91.21
2023-03-03T17:47:53.773Z,91.23
2023-03-03T17:50:57.597Z,91.20
2023-03-03T17:53:55.392Z,91.23
2023-03-03T17:56:30.142Z,91.16
2023-03-03T17:59:27.177Z,91.26
2023-03-03T18:02:28.412Z,91.22
2023-03-03T18:05:15.174Z,91.47
2023-03-03T18:07:59.514Z,91.35
2023-03-03T18:11:04.082Z,91.46
2023-03-03T18:14:07.192Z,91.55
2023-03-03T18:16:54.234Z,91.58
2023-03-03T18:19:49.323Z,91.59
2023-03-03T18:22:25.446Z,91.66
2023-03-03T18:25:04.288Z,91.73
2023-03-03T18:27:38.022Z,91.80
2023-03-03T18:30:25.105Z,91.94
2023-03-03T18:33:16.636Z,92.00
2023-03-03T18:35:51.294Z,92.19
2023-03-03T18:38:35.510Z,92.12
2023-03-03T18:41:06.768Z,92.26
2023-03-03T18:43:59.708Z,92.21
2023-03-03T18:46:51.677Z,92.16
2023-03-03T18:49:41.625Z,92.16
2023-03-03T18:52:23.671Z,92.11
2023-03-03T18:55:33.437Z,92.13
2023-03-03T18:58:35.612Z,92.08
2023-03-03T19:01:41.925Z,92.08
2023-03-03T19:04:27.122Z,92.09
2023-03-03T19:07:17.367Z,92.16
2023-03-03T19:10:01.859Z,92.26
2023-03-03T19:12:56.943Z,92.22
2023-03-03T19:15:46.385Z,92.16
2023-03-03T19:18:23.866Z,92.30
2023-03-03T19:20:58.421Z,92.20
2023-03-03T19:23:48.742Z,92.15
2023-03-03T19:26:50.862Z,92.12
2023-03-03T19:29:56.435Z,92.07
2023-03-03T19:32:45.923Z,92.26
2023-03-03T19:35:30.215Z,92.24
2023-03-03T19:38:10.807Z,92.35
2023-03-03T19:40:46.221Z,92.48
2023-03-03T19:43:29.844Z,92.43
2023-03-03T19:46:13.042Z,92.50
2023-03-03T19:48:50.179Z,92.55
2023-03-03T19:51:30.562Z,92.54
2023-03-03T19:54:15.673Z,92.61
2023-03-03T19:56:53.318Z,92.67
2023-03-03T19:59:31.842Z,92.70
2023-03-03T20:02:17.721Z,92.68
2023-03-03T20:04:59.465Z,92.61
2023-03-03T20:07:39.305Z,92.57
2023-03-03T20:10:28.439Z,92.65
2023-03-03T20:13:10.210Z,92.60
2023-03-03T20:15:54.136Z,92.60
2023-03-03T20:18:50.459Z,92.49
2023-03-03T20:21:31.394Z,92.68
2023-03-03T20:24:25.421Z,92.72
2023-03-03T20:27:03.356Z,92.77
2023-03-03T20:30:01.219Z,92.90
2023-03-03T20:32:46.584Z,92.95
2023-03-03T20:35:28.372Z,92.90
2023-03-03T20:38:11.366Z,92.96
2023-03-03T20:40:48.911Z,92.95
2023-03-03T20:43:31.409Z,92.94
2023-03-03T20:46:10.711Z,92.89
2023-03-03T20:48:58.121Z,92.95
2023-03-03T20:51:37.300Z,92.86
2023-03-03T20:54:16.611Z,92.86
2023-03-03T20:56:52.586Z,92.82
2023-03-03T20:59:32.174Z,92.84
2023-03-03T21:02:12.281Z,92.81
2023-03-03T21:04:44.808Z,92.89
2023-03-03T21:07:29.093Z,92.79
2023-03-03T21:10:15.464Z,92.80
2023-03-03T21:12:45.952Z,92.82
2023-03-03T21:15:28.168Z,92.73
2023-03-03T21:17:58.864Z,92.71
2023-03-03T21:20:37.097Z,92.65
2023-03-03T21:23:07.120Z,92.62
2023-03-03T21:25:52.376Z,92.55
2023-03-03T21:28:28.024Z,92.48
2023-03-03T21:31:15.952Z,92.39
2023-03-03T21:33:55.391Z,92.40
2023-03-03T21:36:48.001Z,92.27
2023-03-03T21:39:29.703Z,92.33
2023-03-03T21:42:03.269Z,92.48
2023-03-03T21:44:36.304Z,92.19
2023-03-03T21:47:07.340Z,92.27
2023-03-03T21:49:38.884Z,92.17
2023-03-03T21:52:12.327Z,92.19
2023-03-03T21:54:44.986Z,92.15
2023-03-03T21:57:15.167Z,92.07
2023-03-03T21:59:45.178Z,92.14
2023-03-03T22:02:15.076Z,92.14
2023-03-03T22:04:45.731Z,91.95
2023-03-03T22:07:19.723Z,91.90
2023-03-03T22:09:49.479Z,91.98
2023-03-03T22:12:19.261Z,91.84
2023-03-03T22:14:49.528Z,91.77
2023-03-03T22:17:19.298Z,91.90
2023-03-03T22:19:49.078Z,91.79
2023-03-03T22:22:21.456Z,91.84
2023-03-03T22:24:51.260Z,91.84
2023-03-03T22:27:21.071Z,91.94
2023-03-03T22:29:50.843Z,91.77
2023-03-03T22:32:20.678Z,91.74
2023-03-03T22:34:50.743Z,91.69
2023-03-03T22:37:23.962Z,91.65
2023-03-03T22:39:53.731Z,91.72
2023-03-03T22:42:23.581Z,91.59
2023-03-03T22:44:53.339Z,91.62
2023-03-03T22:47:23.135Z,91.62
2023-03-03T22:49:52.918Z,91.58
2023-03-03T22:52:25.309Z,91.57
2023-03-03T22:54:55.061Z,91.46
2023-03-03T22:57:24.826Z,91.55
2023-03-03T22:59:54.879Z,91.49
2023-03-03T23:02:24.655Z,91.40
2023-03-03T23:04:58.424Z,91.33
2023-03-03T23:07:31.693Z,91.39
2023-03-03T23:10:01.524Z,91.38
2023-03-03T23:12:31.387Z,91.28
2023-03-03T23:15:01.324Z,91.23
2023-03-03T23:17:31.137Z,91.15
2023-03-03T23:20:00.946Z,91.10
2023-03-03T23:22:33.322Z,91.17
2023-03-03T23:25:03.163Z,90.91
2023-03-03T23:27:33.059Z,91.07
2023-03-03T23:30:02.919Z,90.87
2023-03-03T23:32:32.931Z,90.93
2023-03-03T23:35:02.982Z,90.88
2023-03-03T23:37:35.521Z,90.92
2023-03-03T23:40:05.385Z,90.78
2023-03-03T23:42:35.285Z,90.85
2023-03-03T23:45:05.151Z,90.88
2023-03-03T23:47:35.345Z,90.94
2023-03-03T23:50:05.190Z,90.94
2023-03-03T23:52:37.568Z,91.03
2023-03-03T23:55:09.430Z,90.95
2023-03-03T23:57:39.204Z,90.85
